sensor_id;sensor_type;location;lat;lon;timestamp;P1;durP1;ratioP1;P2;durP2;ratioP2
43363;SDS011;40636;52.424;-1.948;2023-04-15T00:00:57;12.70;;;7.63;;
43363;SDS011;40636;52.424;-1.948;2023-04-15T00:03:25;11.20;;;6.68;;
43363;SDS011;40636;52.424;-1.948;2023-04-15T00:05:52;12.68;;;7.55;;
43363;SDS011;40636;52.424;-1.948;2023-04-15T00:08:19;12.32;;;8.27;;
43363;SDS011;40636;52.424;-1.948;2023-04-15T00:10:46;13.80;;;8.90;;
43363;SDS011;40636;52.424;-1.948;2023-04-15T00:13:13;10.98;;;7.80;;
43363;SDS011;40636;52.424;-1.948;2023-04-15T00:15:40;14.27;;;8.77;;
43363;SDS011;40636;52.424;-1.948;2023-04-15T00:18:07;14.68;;;9.23;;
43363;SDS011;40636;52.424;-1.948;2023-04-15T00:20:35;13.00;;;8.32;;
43363;SDS011;40636;52.424;-1.948;2023-04-15T00:23:02;16.17;;;9.73;;
43363;SDS011;40636;52.424;-1.948;2023-04-15T00:25:29;12.90;;;8.15;;
43363;SDS011;40636;52.424;-1.948;2023-04-15T00:27:56;18.70;;;8.80;;
43363;SDS011;40636;52.424;-1.948;2023-04-15T00:30:23;17.50;;;10.07;;
43363;SDS011;40636;52.424;-1.948;2023-04-15T00:32:51;14.07;;;9.10;;
43363;SDS011;40636;52.424;-1.948;2023-04-15T00:35:18;15.10;;;8.88;;
43363;SDS011;40636;52.424;-1.948;2023-04-15T00:37:44;14.93;;;10.45;;
43363;SDS011;40636;52.424;-1.948;2023-04-15T00:40:12;14.52;;;9.52;;
43363;SDS011;40636;52.424;-1.948;2023-04-15T00:42:39;14.88;;;9.52;;
43363;SDS011;40636;52.424;-1.948;2023-04-15T00:45:06;15.57;;;9.60;;
43363;SDS011;40636;52.424;-1.948;2023-04-15T00:47:34;15.80;;;9.65;;
43363;SDS011;40636;52.424;-1.948;2023-04-15T00:50:02;14.77;;;9.40;;
43363;SDS011;40636;52.424;-1.948;2023-04-15T00:52:30;16.98;;;10.65;;
43363;SDS011;40636;52.424;-1.948;2023-04-15T00:54:57;16.20;;;11.73;;
43363;SDS011;40636;52.424;-1.948;2023-04-15T00:57:24;20.30;;;10.57;;
43363;SDS011;40636;52.424;-1.948;2023-04-15T00:59:52;16.23;;;11.38;;
43363;SDS011;40636;52.424;-1.948;2023-04-15T01:02:21;20.48;;;12.13;;
43363;SDS011;40636;52.424;-1.948;2023-04-15T01:04:49;18.92;;;11.90;;
43363;SDS011;40636;52.424;-1.948;2023-04-15T01:07:16;19.40;;;12.55;;
43363;SDS011;40636;52.424;-1.948;2023-04-15T01:09:43;18.55;;;12.05;;
43363;SDS011;40636;52.424;-1.948;2023-04-15T01:12:11;20.33;;;12.40;;
43363;SDS011;40636;52.424;-1.948;2023-04-15T01:14:39;17.42;;;12.35;;
43363;SDS011;40636;52.424;-1.948;2023-04-15T01:17:06;18.33;;;13.07;;
43363;SDS011;40636;52.424;-1.948;2023-04-15T01:19:33;19.85;;;12.60;;
43363;SDS011;40636;52.424;-1.948;2023-04-15T01:22:02;20.85;;;12.45;;
43363;SDS011;40636;52.424;-1.948;2023-04-15T01:24:30;19.83;;;14.02;;
43363;SDS011;40636;52.424;-1.948;2023-04-15T01:26:59;21.42;;;13.48;;
43363;SDS011;40636;52.424;-1.948;2023-04-15T01:29:26;23.92;;;14.43;;
43363;SDS011;40636;52.424;-1.948;2023-04-15T01:31:53;20.63;;;13.98;;
43363;SDS011;40636;52.424;-1.948;2023-04-15T01:34:21;21.98;;;14.82;;
43363;SDS011;40636;52.424;-1.948;2023-04-15T01:36:48;22.10;;;14.98;;
43363;SDS011;40636;52.424;-1.948;2023-04-15T01:39:15;25.38;;;17.50;;
43363;SDS011;40636;52.424;-1.948;2023-04-15T01:41:41;26.25;;;15.48;;
43363;SDS011;40636;52.424;-1.948;2023-04-15T01:44:08;24.90;;;15.48;;
43363;SDS011;40636;52.424;-1.948;2023-04-15T01:46:35;27.92;;;15.60;;
43363;SDS011;40636;52.424;-1.948;2023-04-15T01:49:02;27.63;;;17.02;;
43363;SDS011;40636;52.424;-1.948;2023-04-15T01:51:29;29.52;;;17.52;;
43363;SDS011;40636;52.424;-1.948;2023-04-15T01:53:55;28.35;;;17.45;;
43363;SDS011;40636;52.424;-1.948;2023-04-15T01:56:22;26.83;;;17.27;;
43363;SDS011;40636;52.424;-1.948;2023-04-15T01:58:52;30.15;;;17.55;;
43363;SDS011;40636;52.424;-1.948;2023-04-15T02:01:18;31.15;;;17.13;;
43363;SDS011;40636;52.424;-1.948;2023-04-15T02:03:46;30.55;;;17.98;;
43363;SDS011;40636;52.424;-1.948;2023-04-15T02:06:13;31.95;;;18.05;;
43363;SDS011;40636;52.424;-1.948;2023-04-15T02:08:40;28.13;;;17.30;;
43363;SDS011;40636;52.424;-1.948;2023-04-15T02:11:06;26.88;;;15.20;;
43363;SDS011;40636;52.424;-1.948;2023-04-15T02:13:33;29.00;;;15.15;;
43363;SDS011;40636;52.424;-1.948;2023-04-15T02:16:00;28.45;;;16.38;;
43363;SDS011;40636;52.424;-1.948;2023-04-15T02:18:27;29.35;;;15.40;;
43363;SDS011;40636;52.424;-1.948;2023-04-15T02:20:53;31.48;;;17.48;;
43363;SDS011;40636;52.424;-1.948;2023-04-15T02:23:22;28.48;;;14.80;;
43363;SDS011;40636;52.424;-1.948;2023-04-15T02:25:49;28.42;;;15.65;;
43363;SDS011;40636;52.424;-1.948;2023-04-15T02:28:19;26.92;;;15.15;;
43363;SDS011;40636;52.424;-1.948;2023-04-15T02:30:47;29.77;;;15.80;;
43363;SDS011;40636;52.424;-1.948;2023-04-15T02:33:18;28.95;;;15.93;;
43363;SDS011;40636;52.424;-1.948;2023-04-15T02:35:47;26.42;;;14.82;;
43363;SDS011;40636;52.424;-1.948;2023-04-15T02:38:13;30.42;;;14.90;;
43363;SDS011;40636;52.424;-1.948;2023-04-15T02:40:42;22.83;;;14.10;;
43363;SDS011;40636;52.424;-1.948;2023-04-15T02:43:08;26.60;;;15.18;;
43363;SDS011;40636;52.424;-1.948;2023-04-15T02:45:36;26.02;;;14.48;;
43363;SDS011;40636;52.424;-1.948;2023-04-15T02:48:03;24.08;;;14.10;;
43363;SDS011;40636;52.424;-1.948;2023-04-15T02:50:32;28.58;;;14.98;;
43363;SDS011;40636;52.424;-1.948;2023-04-15T02:52:58;27.17;;;14.32;;
43363;SDS011;40636;52.424;-1.948;2023-04-15T02:55:27;30.52;;;14.45;;
43363;SDS011;40636;52.424;-1.948;2023-04-15T02:57:54;29.80;;;14.73;;
43363;SDS011;40636;52.424;-1.948;2023-04-15T03:00:21;29.00;;;13.98;;
43363;SDS011;40636;52.424;-1.948;2023-04-15T03:02:50;25.52;;;12.80;;
43363;SDS011;40636;52.424;-1.948;2023-04-15T03:05:22;28.15;;;14.32;;
43363;SDS011;40636;52.424;-1.948;2023-04-15T03:07:50;25.88;;;13.43;;
43363;SDS011;40636;52.424;-1.948;2023-04-15T03:10:18;29.67;;;13.55;;
43363;SDS011;40636;52.424;-1.948;2023-04-15T03:12:45;26.15;;;14.55;;
43363;SDS011;40636;52.424;-1.948;2023-04-15T03:15:12;24.67;;;13.45;;
43363;SDS011;40636;52.424;-1.948;2023-04-15T03:17:39;24.70;;;14.20;;
43363;SDS011;40636;52.424;-1.948;2023-04-15T03:20:06;24.98;;;12.13;;
43363;SDS011;40636;52.424;-1.948;2023-04-15T03:22:33;22.23;;;12.13;;
43363;SDS011;40636;52.424;-1.948;2023-04-15T03:24:59;24.15;;;13.02;;
43363;SDS011;40636;52.424;-1.948;2023-04-15T03:27:26;27.55;;;12.55;;
43363;SDS011;40636;52.424;-1.948;2023-04-15T03:29:53;23.08;;;12.68;;
43363;SDS011;40636;52.424;-1.948;2023-04-15T03:32:20;23.73;;;13.32;;
43363;SDS011;40636;52.424;-1.948;2023-04-15T03:34:46;24.20;;;14.30;;
43363;SDS011;40636;52.424;-1.948;2023-04-15T03:37:13;25.98;;;13.20;;
43363;SDS011;40636;52.424;-1.948;2023-04-15T03:39:40;28.63;;;13.38;;
43363;SDS011;40636;52.424;-1.948;2023-04-15T03:42:06;23.73;;;12.20;;
43363;SDS011;40636;52.424;-1.948;2023-04-15T03:44:33;20.98;;;11.73;;
43363;SDS011;40636;52.424;-1.948;2023-04-15T03:47:00;23.15;;;12.60;;
43363;SDS011;40636;52.424;-1.948;2023-04-15T03:49:27;23.45;;;12.18;;
43363;SDS011;40636;52.424;-1.948;2023-04-15T03:51:53;23.05;;;12.57;;
43363;SDS011;40636;52.424;-1.948;2023-04-15T03:54:20;20.80;;;12.18;;
43363;SDS011;40636;52.424;-1.948;2023-04-15T03:56:47;23.10;;;11.90;;
43363;SDS011;40636;52.424;-1.948;2023-04-15T03:59:13;22.15;;;11.60;;
43363;SDS011;40636;52.424;-1.948;2023-04-15T04:01:40;25.00;;;13.25;;
43363;SDS011;40636;52.424;-1.948;2023-04-15T04:04:07;23.60;;;12.13;;
43363;SDS011;40636;52.424;-1.948;2023-04-15T04:06:34;23.40;;;12.38;;
43363;SDS011;40636;52.424;-1.948;2023-04-15T04:09:01;25.55;;;13.60;;
43363;SDS011;40636;52.424;-1.948;2023-04-15T04:11:28;21.13;;;12.70;;
43363;SDS011;40636;52.424;-1.948;2023-04-15T04:13:54;24.95;;;13.85;;
43363;SDS011;40636;52.424;-1.948;2023-04-15T04:16:21;24.83;;;14.63;;
43363;SDS011;40636;52.424;-1.948;2023-04-15T04:18:48;23.10;;;13.15;;
43363;SDS011;40636;52.424;-1.948;2023-04-15T04:21:15;24.73;;;14.02;;
43363;SDS011;40636;52.424;-1.948;2023-04-15T04:23:42;28.67;;;14.65;;
43363;SDS011;40636;52.424;-1.948;2023-04-15T04:26:09;21.40;;;13.75;;
43363;SDS011;40636;52.424;-1.948;2023-04-15T04:28:35;22.92;;;14.43;;
43363;SDS011;40636;52.424;-1.948;2023-04-15T04:31:02;23.67;;;13.02;;
43363;SDS011;40636;52.424;-1.948;2023-04-15T04:33:29;22.45;;;13.73;;
43363;SDS011;40636;52.424;-1.948;2023-04-15T04:35:55;25.80;;;13.95;;
43363;SDS011;40636;52.424;-1.948;2023-04-15T04:38:22;24.95;;;13.77;;
43363;SDS011;40636;52.424;-1.948;2023-04-15T04:40:48;25.92;;;14.55;;
43363;SDS011;40636;52.424;-1.948;2023-04-15T04:43:15;25.15;;;14.15;;
43363;SDS011;40636;52.424;-1.948;2023-04-15T04:45:42;26.70;;;14.63;;
43363;SDS011;40636;52.424;-1.948;2023-04-15T04:48:08;25.00;;;14.52;;
43363;SDS011;40636;52.424;-1.948;2023-04-15T04:50:35;21.40;;;12.93;;
43363;SDS011;40636;52.424;-1.948;2023-04-15T04:53:02;30.13;;;13.80;;
43363;SDS011;40636;52.424;-1.948;2023-04-15T04:55:29;27.20;;;14.18;;
43363;SDS011;40636;52.424;-1.948;2023-04-15T04:57:57;25.98;;;14.85;;
43363;SDS011;40636;52.424;-1.948;2023-04-15T05:00:23;28.17;;;15.27;;
43363;SDS011;40636;52.424;-1.948;2023-04-15T05:02:50;25.73;;;13.80;;
43363;SDS011;40636;52.424;-1.948;2023-04-15T05:05:17;26.48;;;13.90;;
43363;SDS011;40636;52.424;-1.948;2023-04-15T05:07:44;24.85;;;15.00;;
43363;SDS011;40636;52.424;-1.948;2023-04-15T05:10:11;30.33;;;17.13;;
43363;SDS011;40636;52.424;-1.948;2023-04-15T05:12:38;27.73;;;14.88;;
43363;SDS011;40636;52.424;-1.948;2023-04-15T05:15:05;25.40;;;15.35;;
43363;SDS011;40636;52.424;-1.948;2023-04-15T05:17:32;27.48;;;15.02;;
43363;SDS011;40636;52.424;-1.948;2023-04-15T05:20:01;27.55;;;15.95;;
43363;SDS011;40636;52.424;-1.948;2023-04-15T05:22:28;27.27;;;14.88;;
43363;SDS011;40636;52.424;-1.948;2023-04-15T05:24:55;28.27;;;15.30;;
43363;SDS011;40636;52.424;-1.948;2023-04-15T05:27:21;32.00;;;17.38;;
43363;SDS011;40636;52.424;-1.948;2023-04-15T05:29:49;25.83;;;15.32;;
43363;SDS011;40636;52.424;-1.948;2023-04-15T05:32:15;27.50;;;14.60;;
43363;SDS011;40636;52.424;-1.948;2023-04-15T05:34:42;28.42;;;14.85;;
43363;SDS011;40636;52.424;-1.948;2023-04-15T05:37:09;31.67;;;15.00;;
43363;SDS011;40636;52.424;-1.948;2023-04-15T05:39:36;26.90;;;15.32;;
43363;SDS011;40636;52.424;-1.948;2023-04-15T05:42:02;34.28;;;17.88;;
43363;SDS011;40636;52.424;-1.948;2023-04-15T05:44:31;31.60;;;16.10;;
43363;SDS011;40636;52.424;-1.948;2023-04-15T05:46:58;27.27;;;15.65;;
43363;SDS011;40636;52.424;-1.948;2023-04-15T05:49:25;30.15;;;16.70;;
43363;SDS011;40636;52.424;-1.948;2023-04-15T05:51:51;24.77;;;14.35;;
43363;SDS011;40636;52.424;-1.948;2023-04-15T05:54:18;26.50;;;15.25;;
43363;SDS011;40636;52.424;-1.948;2023-04-15T05:56:45;29.48;;;15.45;;
43363;SDS011;40636;52.424;-1.948;2023-04-15T05:59:12;24.83;;;14.88;;
43363;SDS011;40636;52.424;-1.948;2023-04-15T06:01:38;30.45;;;14.32;;
43363;SDS011;40636;52.424;-1.948;2023-04-15T06:04:05;31.02;;;15.43;;
43363;SDS011;40636;52.424;-1.948;2023-04-15T06:06:32;29.42;;;15.07;;
43363;SDS011;40636;52.424;-1.948;2023-04-15T06:08:59;29.60;;;15.40;;
43363;SDS011;40636;52.424;-1.948;2023-04-15T06:11:26;29.42;;;15.52;;
43363;SDS011;40636;52.424;-1.948;2023-04-15T06:13:53;31.35;;;15.68;;
43363;SDS011;40636;52.424;-1.948;2023-04-15T06:16:20;31.00;;;14.88;;
43363;SDS011;40636;52.424;-1.948;2023-04-15T06:18:47;30.27;;;15.52;;
43363;SDS011;40636;52.424;-1.948;2023-04-15T06:21:14;28.70;;;13.90;;
43363;SDS011;40636;52.424;-1.948;2023-04-15T06:23:41;29.35;;;14.45;;
43363;SDS011;40636;52.424;-1.948;2023-04-15T06:26:08;29.75;;;15.00;;
43363;SDS011;40636;52.424;-1.948;2023-04-15T06:28:34;27.67;;;14.77;;
43363;SDS011;40636;52.424;-1.948;2023-04-15T06:31:01;31.30;;;16.08;;
43363;SDS011;40636;52.424;-1.948;2023-04-15T06:33:28;29.17;;;14.38;;
43363;SDS011;40636;52.424;-1.948;2023-04-15T06:35:55;27.70;;;14.13;;
43363;SDS011;40636;52.424;-1.948;2023-04-15T06:38:21;25.80;;;14.68;;
43363;SDS011;40636;52.424;-1.948;2023-04-15T06:40:48;28.42;;;13.23;;
43363;SDS011;40636;52.424;-1.948;2023-04-15T06:43:15;21.27;;;12.68;;
43363;SDS011;40636;52.424;-1.948;2023-04-15T06:45:41;26.52;;;11.75;;
43363;SDS011;40636;52.424;-1.948;2023-04-15T06:48:08;26.05;;;12.00;;
43363;SDS011;40636;52.424;-1.948;2023-04-15T06:50:35;20.83;;;11.95;;
43363;SDS011;40636;52.424;-1.948;2023-04-15T06:53:01;25.77;;;12.63;;
43363;SDS011;40636;52.424;-1.948;2023-04-15T06:55:28;24.08;;;11.95;;
43363;SDS011;40636;52.424;-1.948;2023-04-15T06:57:55;21.77;;;12.50;;
43363;SDS011;40636;52.424;-1.948;2023-04-15T07:00:21;23.23;;;12.25;;
43363;SDS011;40636;52.424;-1.948;2023-04-15T07:02:48;26.02;;;12.57;;
43363;SDS011;40636;52.424;-1.948;2023-04-15T07:05:15;20.33;;;10.60;;
43363;SDS011;40636;52.424;-1.948;2023-04-15T07:07:42;22.67;;;11.40;;
43363;SDS011;40636;52.424;-1.948;2023-04-15T07:10:08;24.92;;;11.27;;
43363;SDS011;40636;52.424;-1.948;2023-04-15T07:12:37;19.65;;;11.52;;
43363;SDS011;40636;52.424;-1.948;2023-04-15T07:15:04;23.92;;;11.80;;
43363;SDS011;40636;52.424;-1.948;2023-04-15T07:17:31;23.10;;;11.85;;
43363;SDS011;40636;52.424;-1.948;2023-04-15T07:19:58;23.38;;;12.30;;
43363;SDS011;40636;52.424;-1.948;2023-04-15T07:22:25;28.35;;;11.38;;
43363;SDS011;40636;52.424;-1.948;2023-04-15T07:24:52;24.90;;;10.82;;
43363;SDS011;40636;52.424;-1.948;2023-04-15T07:27:18;25.58;;;11.93;;
43363;SDS011;40636;52.424;-1.948;2023-04-15T07:29:45;25.15;;;12.73;;
43363;SDS011;40636;52.424;-1.948;2023-04-15T07:32:12;22.98;;;12.38;;
43363;SDS011;40636;52.424;-1.948;2023-04-15T07:34:38;23.42;;;10.82;;
43363;SDS011;40636;52.424;-1.948;2023-04-15T07:37:05;19.73;;;10.25;;
43363;SDS011;40636;52.424;-1.948;2023-04-15T07:39:31;20.17;;;10.32;;
43363;SDS011;40636;52.424;-1.948;2023-04-15T07:41:58;19.02;;;9.90;;
43363;SDS011;40636;52.424;-1.948;2023-04-15T07:44:25;20.15;;;10.18;;
43363;SDS011;40636;52.424;-1.948;2023-04-15T07:46:52;15.43;;;8.93;;
43363;SDS011;40636;52.424;-1.948;2023-04-15T07:49:19;11.23;;;6.57;;
43363;SDS011;40636;52.424;-1.948;2023-04-15T07:51:46;11.93;;;6.45;;
43363;SDS011;40636;52.424;-1.948;2023-04-15T07:54:14;15.65;;;7.22;;
43363;SDS011;40636;52.424;-1.948;2023-04-15T07:56:41;15.75;;;8.90;;
43363;SDS011;40636;52.424;-1.948;2023-04-15T07:59:08;13.73;;;7.55;;
43363;SDS011;40636;52.424;-1.948;2023-04-15T08:01:35;13.98;;;6.93;;
43363;SDS011;40636;52.424;-1.948;2023-04-15T08:04:02;13.60;;;7.85;;
43363;SDS011;40636;52.424;-1.948;2023-04-15T08:06:29;10.35;;;6.15;;
43363;SDS011;40636;52.424;-1.948;2023-04-15T08:08:56;13.48;;;6.70;;
43363;SDS011;40636;52.424;-1.948;2023-04-15T08:11:23;11.13;;;5.25;;
43363;SDS011;40636;52.424;-1.948;2023-04-15T08:13:50;8.82;;;5.75;;
43363;SDS011;40636;52.424;-1.948;2023-04-15T08:16:24;11.48;;;6.38;;
43363;SDS011;40636;52.424;-1.948;2023-04-15T08:18:54;12.05;;;5.82;;
43363;SDS011;40636;52.424;-1.948;2023-04-15T08:21:21;11.02;;;6.38;;
43363;SDS011;40636;52.424;-1.948;2023-04-15T08:23:49;11.75;;;6.30;;
43363;SDS011;40636;52.424;-1.948;2023-04-15T08:26:17;11.25;;;6.85;;
43363;SDS011;40636;52.424;-1.948;2023-04-15T08:28:45;14.27;;;6.10;;
43363;SDS011;40636;52.424;-1.948;2023-04-15T08:31:15;8.45;;;5.15;;
43363;SDS011;40636;52.424;-1.948;2023-04-15T08:33:43;7.70;;;3.97;;
43363;SDS011;40636;52.424;-1.948;2023-04-15T08:36:10;8.30;;;5.20;;
43363;SDS011;40636;52.424;-1.948;2023-04-15T08:38:37;8.13;;;4.80;;
43363;SDS011;40636;52.424;-1.948;2023-04-15T08:41:09;6.38;;;3.78;;
43363;SDS011;40636;52.424;-1.948;2023-04-15T08:43:50;7.28;;;3.58;;
43363;SDS011;40636;52.424;-1.948;2023-04-15T08:46:26;6.72;;;3.85;;
43363;SDS011;40636;52.424;-1.948;2023-04-15T08:48:55;6.28;;;3.67;;
43363;SDS011;40636;52.424;-1.948;2023-04-15T08:51:22;9.07;;;5.20;;
43363;SDS011;40636;52.424;-1.948;2023-04-15T08:53:50;7.25;;;4.28;;
43363;SDS011;40636;52.424;-1.948;2023-04-15T08:56:17;6.07;;;3.20;;
43363;SDS011;40636;52.424;-1.948;2023-04-15T08:58:45;4.78;;;2.60;;
43363;SDS011;40636;52.424;-1.948;2023-04-15T09:01:13;5.90;;;3.33;;
43363;SDS011;40636;52.424;-1.948;2023-04-15T09:03:40;6.63;;;3.75;;
43363;SDS011;40636;52.424;-1.948;2023-04-15T09:06:07;4.88;;;3.03;;
43363;SDS011;40636;52.424;-1.948;2023-04-15T09:08:34;5.32;;;3.20;;
43363;SDS011;40636;52.424;-1.948;2023-04-15T09:11:01;8.30;;;4.13;;
43363;SDS011;40636;52.424;-1.948;2023-04-15T09:13:28;5.57;;;3.70;;
43363;SDS011;40636;52.424;-1.948;2023-04-15T09:15:56;8.23;;;3.83;;
43363;SDS011;40636;52.424;-1.948;2023-04-15T09:18:27;7.30;;;4.43;;
43363;SDS011;40636;52.424;-1.948;2023-04-15T09:20:55;8.10;;;4.25;;
43363;SDS011;40636;52.424;-1.948;2023-04-15T09:23:22;7.35;;;3.83;;
43363;SDS011;40636;52.424;-1.948;2023-04-15T09:25:49;6.10;;;3.70;;
43363;SDS011;40636;52.424;-1.948;2023-04-15T09:28:22;7.43;;;4.40;;
43363;SDS011;40636;52.424;-1.948;2023-04-15T09:30:53;4.60;;;3.47;;
43363;SDS011;40636;52.424;-1.948;2023-04-15T09:33:22;4.75;;;3.85;;
43363;SDS011;40636;52.424;-1.948;2023-04-15T09:35:59;4.35;;;3.05;;
43363;SDS011;40636;52.424;-1.948;2023-04-15T09:38:27;6.82;;;3.63;;
43363;SDS011;40636;52.424;-1.948;2023-04-15T09:40:54;6.43;;;3.45;;
43363;SDS011;40636;52.424;-1.948;2023-04-15T09:43:21;7.18;;;3.78;;
43363;SDS011;40636;52.424;-1.948;2023-04-15T09:45:49;7.03;;;4.07;;
43363;SDS011;40636;52.424;-1.948;2023-04-15T09:48:23;6.15;;;3.70;;
43363;SDS011;40636;52.424;-1.948;2023-04-15T09:50:56;7.53;;;4.10;;
43363;SDS011;40636;52.424;-1.948;2023-04-15T09:53:26;6.00;;;3.60;;
43363;SDS011;40636;52.424;-1.948;2023-04-15T09:55:55;5.85;;;3.17;;
43363;SDS011;40636;52.424;-1.948;2023-04-15T09:58:25;6.10;;;3.45;;
43363;SDS011;40636;52.424;-1.948;2023-04-15T10:00:56;7.55;;;3.40;;
43363;SDS011;40636;52.424;-1.948;2023-04-15T10:03:24;5.65;;;3.03;;
43363;SDS011;40636;52.424;-1.948;2023-04-15T10:05:53;4.97;;;3.33;;
43363;SDS011;40636;52.424;-1.948;2023-04-15T10:08:23;4.32;;;3.25;;
43363;SDS011;40636;52.424;-1.948;2023-04-15T10:10:52;3.78;;;2.55;;
43363;SDS011;40636;52.424;-1.948;2023-04-15T10:13:20;4.07;;;3.05;;
43363;SDS011;40636;52.424;-1.948;2023-04-15T10:15:50;3.97;;;2.78;;
43363;SDS011;40636;52.424;-1.948;2023-04-15T10:18:24;6.25;;;3.42;;
43363;SDS011;40636;52.424;-1.948;2023-04-15T10:20:52;6.22;;;3.55;;
43363;SDS011;40636;52.424;-1.948;2023-04-15T10:23:21;5.93;;;3.33;;
43363;SDS011;40636;52.424;-1.948;2023-04-15T10:25:49;5.47;;;3.22;;
43363;SDS011;40636;52.424;-1.948;2023-04-15T10:28:17;4.72;;;3.33;;
43363;SDS011;40636;52.424;-1.948;2023-04-15T10:30:45;5.43;;;3.83;;
43363;SDS011;40636;52.424;-1.948;2023-04-15T10:33:13;4.78;;;2.97;;
43363;SDS011;40636;52.424;-1.948;2023-04-15T10:35:42;3.83;;;2.90;;
43363;SDS011;40636;52.424;-1.948;2023-04-15T10:41:20;4.38;;;3.20;;
43363;SDS011;40636;52.424;-1.948;2023-04-15T10:43:52;4.40;;;3.10;;
43363;SDS011;40636;52.424;-1.948;2023-04-15T10:46:44;5.93;;;2.88;;
43363;SDS011;40636;52.424;-1.948;2023-04-15T10:51:43;4.90;;;2.85;;
43363;SDS011;40636;52.424;-1.948;2023-04-15T10:54:15;5.00;;;2.95;;
43363;SDS011;40636;52.424;-1.948;2023-04-15T10:59:32;4.78;;;2.95;;
43363;SDS011;40636;52.424;-1.948;2023-04-15T11:02:03;4.00;;;2.75;;
43363;SDS011;40636;52.424;-1.948;2023-04-15T11:12:43;5.35;;;3.53;;
43363;SDS011;40636;52.424;-1.948;2023-04-15T11:15:24;4.47;;;3.08;;
43363;SDS011;40636;52.424;-1.948;2023-04-15T11:17:57;3.05;;;2.65;;
43363;SDS011;40636;52.424;-1.948;2023-04-15T11:20:35;4.63;;;3.25;;
43363;SDS011;40636;52.424;-1.948;2023-04-15T11:23:02;2.92;;;2.30;;
43363;SDS011;40636;52.424;-1.948;2023-04-15T11:25:41;4.00;;;2.67;;
43363;SDS011;40636;52.424;-1.948;2023-04-15T11:28:09;4.47;;;2.65;;
43363;SDS011;40636;52.424;-1.948;2023-04-15T11:30:37;3.70;;;2.67;;
43363;SDS011;40636;52.424;-1.948;2023-04-15T11:33:09;4.03;;;2.85;;
43363;SDS011;40636;52.424;-1.948;2023-04-15T11:35:38;3.45;;;2.38;;
43363;SDS011;40636;52.424;-1.948;2023-04-15T11:38:13;3.75;;;2.58;;
43363;SDS011;40636;52.424;-1.948;2023-04-15T11:40:41;4.00;;;3.20;;
43363;SDS011;40636;52.424;-1.948;2023-04-15T11:43:13;6.65;;;2.95;;
43363;SDS011;40636;52.424;-1.948;2023-04-15T11:45:48;4.88;;;2.88;;
43363;SDS011;40636;52.424;-1.948;2023-04-15T11:48:25;4.82;;;2.55;;
43363;SDS011;40636;52.424;-1.948;2023-04-15T11:50:57;4.85;;;3.00;;
43363;SDS011;40636;52.424;-1.948;2023-04-15T11:53:35;4.43;;;2.60;;
43363;SDS011;40636;52.424;-1.948;2023-04-15T11:56:02;2.85;;;2.55;;
43363;SDS011;40636;52.424;-1.948;2023-04-15T11:58:29;3.10;;;2.25;;
43363;SDS011;40636;52.424;-1.948;2023-04-15T12:00:57;2.78;;;2.40;;
43363;SDS011;40636;52.424;-1.948;2023-04-15T12:03:26;3.17;;;2.25;;
43363;SDS011;40636;52.424;-1.948;2023-04-15T12:06:17;3.53;;;2.30;;
43363;SDS011;40636;52.424;-1.948;2023-04-15T12:11:43;3.70;;;2.22;;
43363;SDS011;40636;52.424;-1.948;2023-04-15T12:14:11;2.83;;;2.53;;
43363;SDS011;40636;52.424;-1.948;2023-04-15T12:16:43;3.97;;;2.35;;
43363;SDS011;40636;52.424;-1.948;2023-04-15T12:19:16;4.07;;;2.20;;
43363;SDS011;40636;52.424;-1.948;2023-04-15T12:21:48;2.17;;;1.98;;
43363;SDS011;40636;52.424;-1.948;2023-04-15T12:24:14;2.42;;;1.98;;
43363;SDS011;40636;52.424;-1.948;2023-04-15T12:26:48;2.67;;;1.90;;
43363;SDS011;40636;52.424;-1.948;2023-04-15T12:29:18;1.98;;;1.80;;
43363;SDS011;40636;52.424;-1.948;2023-04-15T12:31:50;5.38;;;2.05;;
43363;SDS011;40636;52.424;-1.948;2023-04-15T12:34:31;2.05;;;1.85;;
43363;SDS011;40636;52.424;-1.948;2023-04-15T12:36:59;1.83;;;1.63;;
43363;SDS011;40636;52.424;-1.948;2023-04-15T12:39:28;3.15;;;1.98;;
43363;SDS011;40636;52.424;-1.948;2023-04-15T12:41:58;2.35;;;1.40;;
43363;SDS011;40636;52.424;-1.948;2023-04-15T12:44:26;1.63;;;1.45;;
43363;SDS011;40636;52.424;-1.948;2023-04-15T12:46:53;3.60;;;2.05;;
43363;SDS011;40636;52.424;-1.948;2023-04-15T12:49:20;3.28;;;1.83;;
43363;SDS011;40636;52.424;-1.948;2023-04-15T12:51:48;2.08;;;1.73;;
43363;SDS011;40636;52.424;-1.948;2023-04-15T12:54:16;3.08;;;2.17;;
43363;SDS011;40636;52.424;-1.948;2023-04-15T12:56:47;2.63;;;1.85;;
43363;SDS011;40636;52.424;-1.948;2023-04-15T12:59:15;1.73;;;1.63;;
43363;SDS011;40636;52.424;-1.948;2023-04-15T13:01:44;7.25;;;3.33;;
43363;SDS011;40636;52.424;-1.948;2023-04-15T13:04:14;2.22;;;1.85;;
43363;SDS011;40636;52.424;-1.948;2023-04-15T13:06:41;2.05;;;1.88;;
43363;SDS011;40636;52.424;-1.948;2023-04-15T13:09:09;3.25;;;2.00;;
43363;SDS011;40636;52.424;-1.948;2023-04-15T13:11:35;2.60;;;2.28;;
43363;SDS011;40636;52.424;-1.948;2023-04-15T13:14:03;3.42;;;2.25;;
43363;SDS011;40636;52.424;-1.948;2023-04-15T13:16:31;2.67;;;2.28;;
43363;SDS011;40636;52.424;-1.948;2023-04-15T13:18:59;2.22;;;2.03;;
43363;SDS011;40636;52.424;-1.948;2023-04-15T13:21:27;3.83;;;2.38;;
43363;SDS011;40636;52.424;-1.948;2023-04-15T13:23:54;3.35;;;2.67;;
43363;SDS011;40636;52.424;-1.948;2023-04-15T13:26:21;3.67;;;2.67;;
43363;SDS011;40636;52.424;-1.948;2023-04-15T13:28:48;3.15;;;2.65;;
43363;SDS011;40636;52.424;-1.948;2023-04-15T13:31:14;4.20;;;2.40;;
43363;SDS011;40636;52.424;-1.948;2023-04-15T13:33:41;3.30;;;2.78;;
43363;SDS011;40636;52.424;-1.948;2023-04-15T13:36:08;5.03;;;2.88;;
43363;SDS011;40636;52.424;-1.948;2023-04-15T13:38:35;4.60;;;2.58;;
43363;SDS011;40636;52.424;-1.948;2023-04-15T13:41:01;4.40;;;2.38;;
43363;SDS011;40636;52.424;-1.948;2023-04-15T13:43:28;3.28;;;2.03;;
43363;SDS011;40636;52.424;-1.948;2023-04-15T13:45:54;2.95;;;2.20;;
43363;SDS011;40636;52.424;-1.948;2023-04-15T13:48:21;3.67;;;2.13;;
43363;SDS011;40636;52.424;-1.948;2023-04-15T13:50:48;3.22;;;2.30;;
43363;SDS011;40636;52.424;-1.948;2023-04-15T13:53:15;2.22;;;1.90;;
43363;SDS011;40636;52.424;-1.948;2023-04-15T13:55:42;2.35;;;2.00;;
43363;SDS011;40636;52.424;-1.948;2023-04-15T13:58:09;3.63;;;1.83;;
43363;SDS011;40636;52.424;-1.948;2023-04-15T14:00:36;4.13;;;2.00;;
43363;SDS011;40636;52.424;-1.948;2023-04-15T14:03:03;2.58;;;2.15;;
43363;SDS011;40636;52.424;-1.948;2023-04-15T14:05:31;4.18;;;2.38;;
43363;SDS011;40636;52.424;-1.948;2023-04-15T14:07:58;3.45;;;3.08;;
43363;SDS011;40636;52.424;-1.948;2023-04-15T14:10:25;2.95;;;2.28;;
43363;SDS011;40636;52.424;-1.948;2023-04-15T14:12:51;3.60;;;2.15;;
43363;SDS011;40636;52.424;-1.948;2023-04-15T14:15:18;2.15;;;1.95;;
43363;SDS011;40636;52.424;-1.948;2023-04-15T14:17:45;4.88;;;2.10;;
43363;SDS011;40636;52.424;-1.948;2023-04-15T14:20:11;4.53;;;1.92;;
43363;SDS011;40636;52.424;-1.948;2023-04-15T14:22:42;2.08;;;1.75;;
43363;SDS011;40636;52.424;-1.948;2023-04-15T14:25:08;2.47;;;1.60;;
43363;SDS011;40636;52.424;-1.948;2023-04-15T14:27:42;1.80;;;1.70;;
43363;SDS011;40636;52.424;-1.948;2023-04-15T14:30:09;2.95;;;1.58;;
43363;SDS011;40636;52.424;-1.948;2023-04-15T14:32:36;3.35;;;1.73;;
43363;SDS011;40636;52.424;-1.948;2023-04-15T14:35:03;2.15;;;1.90;;
43363;SDS011;40636;52.424;-1.948;2023-04-15T14:37:30;1.95;;;1.60;;
43363;SDS011;40636;52.424;-1.948;2023-04-15T14:39:56;1.73;;;1.48;;
43363;SDS011;40636;52.424;-1.948;2023-04-15T14:42:24;1.75;;;1.65;;
43363;SDS011;40636;52.424;-1.948;2023-04-15T14:44:50;2.58;;;2.17;;